Time;durP1;ratioP1;P1;durP2;ratioP2;P2;SDS_P1;SDS_P2;PMS_P1;PMS_P2;Temp;Humidity;BMP_temperature;BMP_pressure;BME280_temperature;BME280_humidity;BME280_pressure;Samples;Min_cycle;Max_cycle;Signal;HPM_P1;HPM_P2
2022/02/13 00:01:13;;;;;;;32.73;15.80;;;;;;;0.67;75.37;101075.56;5038940;28;20768;-79
2022/02/13 00:03:39;;;;;;;34.60;16.60;;;;;;;0.67;75.39;101067.56;5038602;28;20894;-80
2022/02/13 00:06:04;;;;;;;32.58;17.33;;;;;;;0.68;75.70;101064.72;5037844;28;20416;-79
2022/02/13 00:08:29;;;;;;;30.80;16.13;;;;;;;0.67;75.85;101065.72;5053800;28;20385;-79
2022/02/13 00:10:55;;;;;;;27.30;16.47;;;;;;;0.66;75.85;101072.03;5038083;28;20390;-80
2022/02/13 00:13:20;;;;;;;31.83;16.73;;;;;;;0.65;75.13;101061.56;5051594;28;20436;-79
2022/02/13 00:15:45;;;;;;;37.70;19.40;;;;;;;0.66;74.86;101066.72;5045910;28;20413;-79
2022/02/13 00:18:10;;;;;;;45.50;21.93;;;;;;;0.67;75.11;101056.88;5038767;28;20403;-79
2022/02/13 00:20:36;;;;;;;30.20;17.55;;;;;;;0.68;75.53;101045.22;5036511;28;20393;-79
2022/02/13 00:23:01;;;;;;;33.03;18.53;;;;;;;0.70;75.06;101048.53;5046966;28;20402;-79
2022/02/13 00:25:27;;;;;;;32.83;18.67;;;;;;;0.63;75.35;101036.88;5033627;28;20395;-79
2022/02/13 00:27:52;;;;;;;34.20;19.50;;;;;;;0.59;74.91;101036.41;5033702;28;20406;-80
2022/02/13 00:30:17;;;;;;;33.67;17.50;;;;;;;0.57;74.84;101035.72;5033700;28;20418;-80
2022/02/13 00:32:44;;;;;;;29.83;16.77;;;;;;;0.56;75.11;101035.91;5048874;28;20411;-79
2022/02/13 00:35:13;;;;;;;31.65;17.15;;;;;;;0.53;75.25;101034.38;5048324;28;20488;-79
2022/02/13 00:37:38;;;;;;;36.35;19.13;;;;;;;0.50;75.58;101035.53;5049037;28;20421;-80
2022/02/13 00:40:05;;;;;;;32.93;17.50;;;;;;;0.47;75.32;101030.53;5065707;28;20540;-79
2022/02/13 00:42:30;;;;;;;31.52;17.25;;;;;;;0.43;75.75;101031.88;5047904;28;20891;-80
2022/02/13 00:44:55;;;;;;;34.97;16.87;;;;;;;0.38;75.88;101028.88;5038109;28;20601;-79
2022/02/13 00:47:21;;;;;;;30.75;16.83;;;;;;;0.38;75.88;101028.03;5032160;28;20403;-80
2022/02/13 00:49:46;;;;;;;23.03;13.87;;;;;;;0.36;75.20;101027.38;5047648;28;20397;-79
2022/02/13 00:52:11;;;;;;;22.87;13.27;;;;;;;0.34;75.49;101037.34;5052101;28;20401;-79
2022/02/13 00:54:36;;;;;;;13.85;9.10;;;;;;;0.25;75.35;101035.69;5045815;28;20413;-80
2022/02/13 00:57:02;;;;;;;14.30;8.07;;;;;;;0.16;74.95;101039.34;5044399;28;20393;-80
2022/02/13 00:59:28;;;;;;;13.57;8.20;;;;;;;0.12;75.30;101032.66;5046757;28;20395;-80
2022/02/13 01:01:53;;;;;;;13.47;7.20;;;;;;;0.12;75.27;101038.81;5047930;28;20415;-80
2022/02/13 01:04:18;;;;;;;13.03;8.03;;;;;;;0.12;75.71;101028.16;5038656;28;20433;-80
2022/02/13 01:06:44;;;;;;;11.50;7.43;;;;;;;0.15;75.26;101037.66;5034209;28;20410;-80
2022/02/13 01:09:09;;;;;;;13.50;7.83;;;;;;;0.10;75.37;101038.13;5033062;28;20395;-80
2022/02/13 01:11:34;;;;;;;13.32;7.82;;;;;;;0.04;75.36;101033.47;5048463;28;20402;-80
2022/02/13 01:14:00;;;;;;;8.83;7.17;;;;;;;-0.09;75.86;101031.28;5031698;28;20399;-80
2022/02/13 01:16:26;;;;;;;12.63;7.50;;;;;;;-0.18;76.90;101034.91;5040537;28;20385;-80
2022/02/13 01:18:53;;;;;;;12.30;7.25;;;;;;;-0.10;76.60;101032.25;5045106;28;20413;-80
2022/02/13 01:21:18;;;;;;;12.13;7.40;;;;;;;-0.02;76.25;101029.63;5036334;28;20415;-80
2022/02/13 01:23:43;;;;;;;16.00;7.53;;;;;;;0.07;76.07;101019.00;5041496;28;20412;-80
2022/02/13 01:26:09;;;;;;;11.55;8.15;;;;;;;0.09;75.89;101017.84;5040684;28;20386;-80
2022/02/13 01:28:35;;;;;;;12.25;7.60;;;;;;;0.10;75.99;101011.50;5040846;28;20429;-80
2022/02/13 01:31:02;;;;;;;11.07;7.50;;;;;;;0.07;76.18;101014.47;5047908;28;20752;-80
2022/02/13 01:33:31;;;;;;;11.70;7.65;;;;;;;0.06;76.04;101017.31;5046390;28;20464;-80
2022/02/13 01:35:57;;;;;;;9.35;7.38;;;;;;;0.04;76.40;101017.47;5030831;28;20410;-80
2022/02/13 01:38:23;;;;;;;10.18;7.35;;;;;;;-0.07;76.50;101010.63;5047485;28;20403;-80
2022/02/13 01:40:48;;;;;;;11.95;7.00;;;;;;;-0.10;76.34;101018.13;5047703;28;20962;-80
2022/02/13 01:43:13;;;;;;;9.38;6.75;;;;;;;-0.21;76.22;101007.75;5036119;28;20469;-81
2022/02/13 01:45:39;;;;;;;11.07;6.93;;;;;;;-0.22;76.39;101004.25;5044670;28;20938;-80
2022/02/13 01:48:08;;;;;;;11.97;7.57;;;;;;;-0.19;75.50;101003.94;5031282;28;20421;-81
2022/02/13 01:50:36;;;;;;;10.75;6.97;;;;;;;-0.17;75.63;100996.63;5046895;28;20518;-81
2022/02/13 01:53:02;;;;;;;10.23;6.93;;;;;;;-0.18;76.13;100994.13;5045253;28;20450;-81
2022/02/13 01:55:28;;;;;;;10.48;6.53;;;;;;;-0.31;75.67;100999.06;5031592;28;20394;-81
2022/02/13 01:57:53;;;;;;;11.40;7.50;;;;;;;-0.48;76.54;101006.16;5039264;28;20470;-80
2022/02/13 02:00:19;;;;;;;10.97;7.50;;;;;;;-0.56;76.43;101003.50;5035343;28;20401;-81
2022/02/13 02:02:44;;;;;;;9.73;7.82;;;;;;;-0.54;76.59;101001.50;5034024;28;20407;-81
2022/02/13 02:05:10;;;;;;;12.23;6.83;;;;;;;-0.50;76.71;101002.84;5037360;28;20861;-80
2022/02/13 02:07:35;;;;;;;11.50;7.30;;;;;;;-0.54;76.21;100999.66;5049696;28;20405;-80
2022/02/13 02:10:01;;;;;;;11.63;6.77;;;;;;;-0.46;76.40;101001.50;5038568;28;20453;-81
2022/02/13 02:12:26;;;;;;;9.33;6.60;;;;;;;-0.32;76.56;100994.72;5031938;28;20406;-81
2022/02/13 02:14:52;;;;;;;10.77;7.00;;;;;;;-0.28;76.03;100998.75;5032056;28;21056;-81
2022/02/13 02:17:18;;;;;;;12.32;7.40;;;;;;;-0.24;75.86;101000.09;5031641;28;20395;-80
2022/02/13 02:19:43;;;;;;;10.50;6.70;;;;;;;-0.22;75.53;100987.44;5032544;28;20473;-80
2022/02/13 02:22:09;;;;;;;10.60;6.80;;;;;;;-0.22;75.49;100988.28;5032617;28;20419;-80
2022/02/13 02:24:35;;;;;;;9.02;6.32;;;;;;;-0.20;74.77;100988.94;5040309;28;20406;-81
2022/02/13 02:27:01;;;;;;;7.57;6.25;;;;;;;-0.23;75.30;100989.28;5031710;28;20396;-80
2022/02/13 02:29:27;;;;;;;10.60;6.30;;;;;;;-0.32;75.50;100982.25;5042543;28;20745;-80
2022/02/13 02:31:53;;;;;;;10.25;6.05;;;;;;;-0.31;74.98;100983.94;5046476;28;20414;-80
2022/02/13 02:34:18;;;;;;;9.17;6.43;;;;;;;-0.37;75.43;100986.41;5062936;28;20407;-80
2022/02/13 02:36:44;;;;;;;10.83;6.73;;;;;;;-0.45;76.00;100979.22;5038867;28;20489;-80
2022/02/13 02:39:10;;;;;;;9.60;6.50;;;;;;;-0.44;75.28;100974.72;5031683;28;20391;-80
2022/02/13 02:41:36;;;;;;;10.85;6.78;;;;;;;-0.40;75.31;100971.59;5045283;28;20413;-81
2022/02/13 02:44:01;;;;;;;9.02;6.43;;;;;;;-0.37;74.87;100967.78;5034621;28;20422;-80
2022/02/13 02:46:26;;;;;;;10.57;5.70;;;;;;;-0.37;74.79;100962.44;5045797;28;20924;-81
2022/02/13 02:48:52;;;;;;;8.83;5.43;;;;;;;-0.36;74.93;100954.28;5035125;28;20402;-80
2022/02/13 02:51:17;;;;;;;9.63;6.33;;;;;;;-0.38;75.06;100958.94;5032386;28;20771;-81
2022/02/13 02:53:42;;;;;;;11.33;6.10;;;;;;;-0.38;75.28;100952.78;5047600;28;20405;-81
2022/02/13 02:56:09;;;;;;;9.98;6.13;;;;;;;-0.43;75.25;100957.78;5030958;28;20538;-80
2022/02/13 02:58:35;;;;;;;8.63;6.10;;;;;;;-0.41;75.31;100953.94;5039376;28;20397;-80
2022/02/13 03:01:00;;;;;;;8.37;6.00;;;;;;;-0.43;75.10;100952.44;5050439;28;20481;-80
2022/02/13 03:03:25;;;;;;;10.07;6.25;;;;;;;-0.50;75.15;100948.75;5049054;28;20401;-80
2022/02/13 03:05:52;;;;;;;8.57;6.13;;;;;;;-0.57;75.43;100951.22;5048864;28;20432;-80
2022/02/13 03:08:18;;;;;;;9.20;6.60;;;;;;;-0.49;75.13;100950.44;5046718;28;21070;-80
2022/02/13 03:10:44;;;;;;;9.65;6.43;;;;;;;-0.46;74.50;100947.44;5040133;28;20776;-80
2022/02/13 03:13:11;;;;;;;8.30;6.13;;;;;;;-0.45;74.26;100941.94;5039991;28;20395;-80
2022/02/13 03:15:36;;;;;;;10.00;6.03;;;;;;;-0.45;74.64;100947.28;5051411;28;20785;-81
2022/02/13 03:18:02;;;;;;;6.97;5.63;;;;;;;-0.45;74.42;100943.78;5041381;28;20395;-81
2022/02/13 03:20:28;;;;;;;10.97;5.73;;;;;;;-0.45;74.60;100944.59;5034359;28;20483;-80
2022/02/13 03:22:53;;;;;;;10.20;6.20;;;;;;;-0.46;74.91;100944.78;5050282;28;20422;-81
2022/02/13 03:25:18;;;;;;;11.70;6.20;;;;;;;-0.46;74.63;100937.59;5049530;28;20495;-80
2022/02/13 03:27:44;;;;;;;8.03;5.90;;;;;;;-0.45;74.54;100935.78;5034931;28;20480;-81
2022/02/13 03:30:09;;;;;;;8.90;5.68;;;;;;;-0.45;74.66;100935.78;5038169;28;20426;-80
2022/02/13 03:32:34;;;;;;;9.93;5.57;;;;;;;-0.45;74.62;100938.44;5034850;28;20778;-81
2022/02/13 03:35:00;;;;;;;9.10;5.80;;;;;;;-0.48;75.20;100928.97;5050977;28;20394;-80
2022/02/13 03:37:26;;;;;;;9.93;5.80;;;;;;;-0.51;74.64;100929.28;5037430;28;20390;-80
2022/02/13 03:39:51;;;;;;;10.60;5.70;;;;;;;-0.60;75.08;100927.59;5042133;28;20393;-81
2022/02/13 03:42:16;;;;;;;10.17;5.73;;;;;;;-0.60;75.18;100916.94;5042045;28;20518;-80
2022/02/13 03:44:42;;;;;;;9.43;6.10;;;;;;;-0.57;74.92;100925.44;5034746;28;20414;-80
2022/02/13 03:47:08;;;;;;;8.93;5.95;;;;;;;-0.57;74.31;100917.47;5047916;28;20463;-81
2022/02/13 03:49:33;;;;;;;9.30;5.70;;;;;;;-0.58;74.25;100921.13;5047615;28;20832;-81
2022/02/13 03:51:58;;;;;;;8.40;6.13;;;;;;;-0.57;74.50;100920.13;5034787;28;20445;-81
2022/02/13 03:54:24;;;;;;;10.13;5.70;;;;;;;-0.60;74.82;100923.13;5034564;28;20437;-80
2022/02/13 03:56:49;;;;;;;10.15;5.88;;;;;;;-0.59;74.16;100916.78;5049632;28;20434;-81
2022/02/13 03:59:15;;;;;;;12.60;5.72;;;;;;;-0.60;74.60;100922.28;5036262;28;20483;-80
2022/02/13 04:01:40;;;;;;;10.23;6.13;;;;;;;-0.59;74.58;100919.44;5036612;28;20793;-80
2022/02/13 04:04:06;;;;;;;8.05;5.93;;;;;;;-0.58;75.00;100926.44;5049437;28;20391;-81
2022/02/13 04:06:32;;;;;;;8.07;6.35;;;;;;;-0.61;74.74;100920.59;5045711;28;20416;-80
2022/02/13 04:08:57;;;;;;;9.65;6.22;;;;;;;-0.69;75.22;100923.25;5049588;28;20446;-80
2022/02/13 04:11:22;;;;;;;8.82;5.38;;;;;;;-0.69;75.85;100920.59;5039599;28;20410;-80
2022/02/13 04:13:48;;;;;;;8.17;5.57;;;;;;;-0.66;75.18;100926.41;5033815;28;20498;-80
2022/02/13 04:16:13;;;;;;;9.77;5.63;;;;;;;-0.61;74.94;100925.94;5045185;28;20500;-80
2022/02/13 04:18:38;;;;;;;8.13;5.63;;;;;;;-0.62;74.53;100932.22;5033703;28;20453;-80
2022/02/13 04:21:03;;;;;;;7.13;5.47;;;;;;;-0.63;75.00;100925.25;5033488;28;20449;-80
2022/02/13 04:23:31;;;;;;;7.07;5.43;;;;;;;-0.64;74.90;100929.75;5040229;28;20448;-80
2022/02/13 04:25:57;;;;;;;7.20;5.40;;;;;;;-0.66;74.50;100921.06;5034195;28;20534;-80
2022/02/13 04:28:22;;;;;;;7.43;5.00;;;;;;;-0.69;74.73;100920.59;5033841;28;20910;-80
2022/02/13 04:30:47;;;;;;;9.30;5.60;;;;;;;-0.68;74.22;100927.56;5043608;28;20409;-80
2022/02/13 04:33:12;;;;;;;8.63;5.37;;;;;;;-0.69;74.95;100920.59;5037855;28;20411;-80
2022/02/13 04:35:38;;;;;;;7.50;5.88;;;;;;;-0.72;74.54;100911.06;5034457;28;20398;-81
2022/02/13 04:38:03;;;;;;;7.97;5.20;;;;;;;-0.78;73.80;100911.72;5050981;28;20896;-80
2022/02/13 04:40:28;;;;;;;10.00;5.70;;;;;;;-0.78;74.74;100914.38;5057087;28;20498;-80
2022/02/13 04:42:54;;;;;;;7.77;5.60;;;;;;;-0.79;74.69;100912.72;5037970;28;21019;-80
2022/02/13 04:45:19;;;;;;;7.70;5.73;;;;;;;-0.78;74.92;100913.53;5041013;28;20410;-80
2022/02/13 04:47:44;;;;;;;8.07;5.43;;;;;;;-0.78;75.12;100913.53;5053129;28;20385;-81
2022/02/13 04:50:10;;;;;;;11.17;5.43;;;;;;;-0.80;74.96;100912.88;5035250;28;20402;-81
2022/02/13 04:52:36;;;;;;;6.40;5.13;;;;;;;-0.81;74.47;100906.72;5037786;28;20800;-80
2022/02/13 04:55:02;;;;;;;7.47;5.35;;;;;;;-0.84;74.87;100907.06;5044132;28;20409;-80
2022/02/13 04:57:27;;;;;;;7.50;5.35;;;;;;;-0.90;75.13;100906.84;5038852;28;20427;-81
2022/02/13 04:59:53;;;;;;;6.90;4.93;;;;;;;-1.05;74.46;100901.28;5051041;28;20983;-80
2022/02/13 05:02:19;;;;;;;10.05;5.60;;;;;;;-1.17;75.21;100903.41;5045664;28;20427;-80
2022/02/13 05:04:45;;;;;;;7.47;4.95;;;;;;;-1.29;75.15;100906.50;5030768;28;20411;-81
2022/02/13 05:07:10;;;;;;;8.55;5.28;;;;;;;-1.25;75.38;100891.91;5033608;28;20435;-80
2022/02/13 05:09:36;;;;;;;7.97;5.40;;;;;;;-1.14;75.54;100889.78;5031349;28;20442;-81
2022/02/13 05:12:02;;;;;;;9.33;4.80;;;;;;;-1.09;74.72;100884.00;5054829;28;20941;-80
2022/02/13 05:14:27;;;;;;;7.85;5.45;;;;;;;-1.06;74.85;100879.22;5041949;28;20397;-80
2022/02/13 05:16:52;;;;;;;5.57;4.97;;;;;;;-1.11;74.85;100875.34;5041315;28;20403;-80
2022/02/13 05:19:18;;;;;;;7.43;5.13;;;;;;;-1.25;75.41;100873.31;5031820;28;21158;-80
2022/02/13 05:21:44;;;;;;;8.70;5.23;;;;;;;-1.21;74.95;100870.16;5034944;28;20422;-80
2022/02/13 05:24:09;;;;;;;8.57;4.80;;;;;;;-1.20;74.82;100863.00;5050333;28;20402;-80
2022/02/13 05:26:35;;;;;;;6.60;4.50;;;;;;;-1.26;75.70;100868.97;5029914;28;20425;-80
2022/02/13 05:29:01;;;;;;;7.30;4.68;;;;;;;-1.32;75.41;100861.63;5031076;28;20423;-80
2022/02/13 05:31:30;;;;;;;10.95;6.18;;;;;;;-1.41;76.28;100859.88;5032013;28;20413;-80
2022/02/13 05:33:59;;;;;;;7.50;5.03;;;;;;;-1.41;76.28;100860.72;5039131;28;20487;-80
2022/02/13 05:36:24;;;;;;;6.85;4.45;;;;;;;-1.25;75.61;100852.03;5033811;28;20490;-81
2022/02/13 05:38:50;;;;;;;8.37;4.53;;;;;;;-1.19;75.61;100852.22;5036735;28;20787;-81
2022/02/13 05:41:15;;;;;;;5.63;4.63;;;;;;;-1.12;75.79;100850.56;5032643;28;20403;-80
2022/02/13 05:43:40;;;;;;;5.50;4.10;;;;;;;-1.08;75.87;100843.09;5030943;28;20453;-80
2022/02/13 05:46:06;;;;;;;7.00;4.43;;;;;;;-1.11;75.70;100841.59;5036473;28;20456;-80
2022/02/13 05:48:32;;;;;;;5.77;4.10;;;;;;;-1.31;76.17;100834.88;5040644;28;20955;-81
2022/02/13 05:50:59;;;;;;;6.63;4.20;;;;;;;-1.20;76.39;100828.44;5037622;28;20474;-80
2022/02/13 05:53:24;;;;;;;5.47;3.97;;;;;;;-1.11;76.30;100822.16;5038328;28;20513;-80
2022/02/13 05:55:49;;;;;;;8.23;4.27;;;;;;;-1.05;75.83;100817.00;5038152;28;20901;-80
2022/02/13 05:58:15;;;;;;;4.40;4.00;;;;;;;-1.02;76.19;100815.84;5045497;28;20963;-80
2022/02/13 06:00:41;;;;;;;6.22;4.55;;;;;;;-1.03;76.17;100819.53;5042604;28;20426;-81
2022/02/13 06:03:06;;;;;;;6.03;4.00;;;;;;;-1.03;75.87;100818.69;5037847;28;20415;-81
2022/02/13 06:05:31;;;;;;;5.47;4.30;;;;;;;-1.10;76.00;100819.34;5032471;28;20402;-80
2022/02/13 06:07:56;;;;;;;4.93;4.38;;;;;;;-1.11;76.58;100817.66;5049564;28;20401;-80
2022/02/13 06:10:22;;;;;;;6.30;4.23;;;;;;;-1.07;75.91;100816.34;5062572;28;20397;-80
2022/02/13 06:12:48;;;;;;;5.67;4.00;;;;;;;-1.10;75.88;100810.53;5037448;28;20410;-80
2022/02/13 06:15:13;;;;;;;7.28;4.03;;;;;;;-1.07;75.61;100802.22;5034954;28;20472;-79
2022/02/13 06:17:38;;;;;;;5.90;4.30;;;;;;;-1.05;76.06;100795.75;5050426;28;20826;-81
2022/02/13 06:20:05;;;;;;;7.30;4.53;;;;;;;-1.03;75.94;100816.88;5035264;28;20449;-79
2022/02/13 06:22:30;;;;;;;5.93;4.07;;;;;;;-1.02;76.38;100799.91;5030594;28;20450;-79
2022/02/13 06:24:56;;;;;;;32.43;11.87;;;;;;;-1.01;76.14;100809.56;5034607;28;20433;-80
2022/02/13 06:27:21;;;;;;;54.30;18.73;;;;;;;-0.97;76.43;100808.25;5030937;28;20391;-80
2022/02/13 06:29:47;;;;;;;60.30;19.20;;;;;;;-0.96;76.00;100796.63;5038445;28;20404;-80
2022/02/13 06:32:13;;;;;;;71.15;24.23;;;;;;;-0.95;76.41;100806.22;5038400;28;20401;-79
2022/02/13 06:34:38;;;;;;;257.45;73.47;;;;;;;-0.95;75.75;100811.56;5031843;28;20407;-79
2022/02/13 06:37:04;;;;;;;119.88;37.65;;;;;;;-0.90;75.98;100800.44;5044041;28;20774;-80
2022/02/13 06:39:31;;;;;;;120.15;38.53;;;;;;;-0.96;76.08;100801.94;5049577;28;20424;-79
2022/02/13 06:41:56;;;;;;;126.82;40.38;;;;;;;-0.99;76.56;100804.91;5038453;28;20425;-80
2022/02/13 06:44:21;;;;;;;81.85;25.55;;;;;;;-0.97;76.88;100800.25;5033668;28;20913;-79
2022/02/13 06:46:47;;;;;;;115.07;35.35;;;;;;;-0.97;76.77;100800.25;5037565;28;20403;-80
2022/02/13 06:49:12;;;;;;;69.03;22.70;;;;;;;-0.92;76.93;100805.91;5046180;28;20451;-80
2022/02/13 06:51:37;;;;;;;91.17;29.83;;;;;;;-0.92;76.84;100797.13;5039162;28;20405;-80
2022/02/13 06:54:03;;;;;;;92.83;30.43;;;;;;;-0.94;76.41;100799.94;5049612;28;20490;-79
2022/02/13 06:56:28;;;;;;;77.65;24.85;;;;;;;-0.96;76.57;100801.09;5033894;28;20920;-79
2022/02/13 06:58:53;;;;;;;47.60;16.70;;;;;;;-0.90;76.74;100803.09;5037998;28;20406;-79
2022/02/13 07:01:18;;;;;;;20.17;8.73;;;;;;;-0.84;75.97;100803.28;5035395;28;20407;-79
2022/02/13 07:03:44;;;;;;;9.67;6.63;;;;;;;-0.82;75.52;100800.44;5035664;28;20415;-79
2022/02/13 07:06:09;;;;;;;7.33;5.20;;;;;;;-0.82;75.09;100795.97;5038632;28;20757;-78
2022/02/13 07:08:34;;;;;;;6.70;4.37;;;;;;;-0.80;75.28;100793.16;5034808;28;20395;-79
2022/02/13 07:11:00;;;;;;;5.23;4.73;;;;;;;-0.84;75.03;100786.47;5032454;28;20406;-79
2022/02/13 07:13:25;;;;;;;7.30;4.70;;;;;;;-0.85;75.37;100790.97;5040421;28;20397;-79
2022/02/13 07:15:51;;;;;;;9.83;6.70;;;;;;;-0.81;76.05;100794.13;5039336;28;20411;-78
2022/02/13 07:18:16;;;;;;;10.73;9.50;;;;;;;-0.76;75.61;100786.50;5040199;28;20848;-78
2022/02/13 07:20:41;;;;;;;9.20;8.20;;;;;;;-0.69;75.64;100787.53;5046153;28;20440;-78
2022/02/13 07:23:07;;;;;;;6.65;5.50;;;;;;;-0.65;76.24;100789.66;5037340;28;20415;-78
2022/02/13 07:25:32;;;;;;;7.18;5.38;;;;;;;-0.58;76.18;100793.34;5043263;28;20539;-79
2022/02/13 07:27:57;;;;;;;7.13;5.00;;;;;;;-0.57;76.15;100789.69;5041843;28;20746;-78
2022/02/13 07:30:23;;;;;;;7.93;5.40;;;;;;;-0.47;76.29;100788.69;5037384;28;20414;-77
2022/02/13 07:32:48;;;;;;;10.83;6.83;;;;;;;-0.38;75.86;100788.53;5030903;28;20858;-77
2022/02/13 07:35:15;;;;;;;18.07;11.27;;;;;;;-0.24;75.92;100779.88;5030860;28;20413;-78
2022/02/13 07:37:41;;;;;;;12.55;6.82;;;;;;;-0.02;75.22;100786.34;5029995;28;20449;-79
2022/02/13 07:40:07;;;;;;;12.33;7.73;;;;;;;0.09;74.81;100780.69;5045335;28;20485;-77
2022/02/13 07:42:32;;;;;;;10.68;6.32;;;;;;;0.08;74.96;100779.00;5040390;28;20535;-77
2022/02/13 07:44:58;;;;;;;7.83;5.50;;;;;;;0.22;74.70;100783.66;5040072;28;20948;-77
2022/02/13 07:47:24;;;;;;;12.77;6.33;;;;;;;0.29;74.67;100765.13;5037781;28;21029;-77
2022/02/13 07:49:50;;;;;;;8.32;5.93;;;;;;;0.29;75.01;100776.63;5039523;28;20405;-75
2022/02/13 07:52:15;;;;;;;6.65;5.30;;;;;;;0.44;74.58;100766.91;5038706;28;21108;-77
2022/02/13 07:54:41;;;;;;;6.90;5.25;;;;;;;0.45;74.70;100765.09;5043802;28;20434;-78
2022/02/13 07:57:06;;;;;;;8.68;5.00;;;;;;;0.54;74.65;100758.72;5039507;28;20953;-77
2022/02/13 07:59:32;;;;;;;8.65;5.68;;;;;;;0.62;74.66;100760.53;5070833;28;20390;-77
2022/02/13 08:01:57;;;;;;;8.32;4.60;;;;;;;0.82;74.83;100767.94;5044929;28;20414;-78
2022/02/13 08:04:22;;;;;;;5.67;4.53;;;;;;;1.01;74.08;100772.00;5032581;28;20502;-77
2022/02/13 08:06:47;;;;;;;8.43;5.00;;;;;;;1.18;74.19;100768.22;5047623;28;20468;-77
2022/02/13 08:09:13;;;;;;;5.43;4.10;;;;;;;1.37;74.19;100767.75;5037180;28;20484;-77
2022/02/13 08:11:39;;;;;;;6.22;4.65;;;;;;;1.50;73.46;100764.50;5032399;28;21028;-77
2022/02/13 08:14:05;;;;;;;6.28;4.60;;;;;;;1.58;73.88;100767.91;5032288;28;20411;-77
2022/02/13 08:16:30;;;;;;;6.30;4.83;;;;;;;1.67;73.61;100771.38;5038825;28;20480;-77
2022/02/13 08:18:55;;;;;;;7.57;4.87;;;;;;;1.61;74.20;100771.25;5037776;28;20808;-77
2022/02/13 08:21:20;;;;;;;6.95;5.20;;;;;;;1.60;73.98;100761.56;5041347;28;20448;-77
2022/02/13 08:23:46;;;;;;;7.70;5.67;;;;;;;1.67;74.14;100765.19;5032569;28;20754;-77
2022/02/13 08:26:14;;;;;;;9.93;5.97;;;;;;;2.11;72.88;100766.09;5043796;28;20403;-77
2022/02/13 08:28:40;;;;;;;8.07;5.75;;;;;;;3.01;70.09;100761.34;5046642;28;20410;-77
2022/02/13 08:31:05;;;;;;;7.70;6.30;;;;;;;3.95;66.41;100755.66;5033642;28;20422;-77
2022/02/13 08:33:31;;;;;;;8.77;6.40;;;;;;;4.03;65.61;100749.31;5034048;28;20505;-77
2022/02/13 08:35:56;;;;;;;10.50;7.47;;;;;;;3.88;65.89;100762.00;5032564;28;20411;-78
2022/02/13 08:38:23;;;;;;;12.63;10.30;;;;;;;3.48;67.09;100758.16;5033202;28;20457;-77
2022/02/13 08:40:48;;;;;;;11.40;6.60;;;;;;;3.38;68.21;100766.50;5044743;28;20766;-77
2022/02/13 08:43:14;;;;;;;9.67;6.20;;;;;;;3.52;69.20;100767.47;5034998;28;20476;-77
2022/02/13 08:45:39;;;;;;;8.13;5.83;;;;;;;3.60;69.26;100761.97;5036886;28;20410;-77
2022/02/13 08:48:04;;;;;;;9.10;6.10;;;;;;;3.37;70.34;100758.63;5035216;28;20410;-77
2022/02/13 08:50:30;;;;;;;8.57;5.83;;;;;;;2.90;71.69;100749.28;5046720;28;20399;-77
2022/02/13 08:52:56;;;;;;;11.85;8.10;;;;;;;2.63;73.04;100752.66;5044357;28;20403;-77
2022/02/13 08:55:22;;;;;;;9.32;7.80;;;;;;;2.57;74.06;100756.06;5032776;28;20434;-78
2022/02/13 08:57:48;;;;;;;10.48;9.10;;;;;;;3.01;72.93;100738.09;5042073;28;20489;-77
2022/02/13 09:00:16;;;;;;;12.43;10.10;;;;;;;3.03;72.67;100744.06;5032522;28;20414;-78
2022/02/13 09:02:42;;;;;;;16.45;11.80;;;;;;;3.17;72.35;100736.19;5040093;28;20957;-78
2022/02/13 09:05:09;;;;;;;13.82;9.93;;;;;;;3.51;70.38;100741.69;5031331;28;20403;-78
2022/02/13 09:07:35;;;;;;;17.08;11.70;;;;;;;3.89;69.52;100742.19;5036800;28;20465;-78
2022/02/13 09:10:01;;;;;;;11.60;9.03;;;;;;;4.45;68.08;100737.63;5033147;28;20906;-77
2022/02/13 09:12:29;;;;;;;9.93;7.68;;;;;;;4.71;67.25;100730.53;5033825;28;20407;-78
2022/02/13 09:14:55;;;;;;;11.52;8.35;;;;;;;4.93;67.28;100727.72;5030877;28;20411;-78
2022/02/13 09:17:20;;;;;;;12.43;8.37;;;;;;;5.33;66.64;100725.97;5033955;28;20549;-78
2022/02/13 09:19:46;;;;;;;11.83;7.70;;;;;;;5.78;63.96;100717.09;5044462;28;20442;-77
2022/02/13 09:22:11;;;;;;;13.30;7.97;;;;;;;5.93;63.74;100730.38;5040264;28;20911;-79
2022/02/13 09:24:36;;;;;;;11.77;7.80;;;;;;;5.91;63.11;100708.22;5042641;28;20406;-78
2022/02/13 09:27:02;;;;;;;9.33;7.60;;;;;;;5.67;63.17;100710.47;5033583;28;20415;-78
2022/02/13 09:29:27;;;;;;;12.25;7.85;;;;;;;5.10;64.54;100702.97;5035196;28;20432;-78
2022/02/13 09:31:52;;;;;;;13.13;8.57;;;;;;;4.81;66.43;100703.28;5033478;28;20898;-79
2022/02/13 09:34:23;;;;;;;9.17;6.90;;;;;;;5.08;66.02;100702.34;5038823;28;20496;-79
2022/02/13 09:36:48;;;;;;;11.50;7.60;;;;;;;5.31;65.18;100691.22;5035764;28;20502;-78
2022/02/13 09:39:14;;;;;;;10.17;7.87;;;;;;;5.64;64.49;100691.25;5039335;28;20530;-78
2022/02/13 09:41:44;;;;;;;8.00;7.10;;;;;;;6.06;63.28;100690.81;5036335;28;20419;-79
2022/02/13 09:44:09;;;;;;;9.90;7.25;;;;;;;6.38;63.63;100688.28;5031265;28;21652;-79
2022/02/13 09:46:35;;;;;;;10.77;7.30;;;;;;;7.33;61.60;100677.41;5033741;28;20405;-79
2022/02/13 09:49:01;;;;;;;10.52;7.63;;;;;;;8.29;58.24;100675.13;5040329;28;20408;-79
2022/02/13 09:51:29;;;;;;;9.45;8.30;;;;;;;9.29;55.14;100679.00;5033904;28;20419;-78
2022/02/13 09:53:54;;;;;;;11.40;8.17;;;;;;;9.16;54.64;100671.06;5033565;28;20594;-79
2022/02/13 09:56:20;;;;;;;11.00;8.30;;;;;;;8.51;55.35;100668.22;5031094;28;20510;-78
2022/02/13 09:58:45;;;;;;;9.03;7.47;;;;;;;8.31;57.06;100673.00;5030519;28;20797;-78
2022/02/13 10:01:11;;;;;;;9.03;7.87;;;;;;;8.66;56.12;100665.94;5037836;28;20763;-77
2022/02/13 10:03:43;;;;;;;9.30;7.03;;;;;;;9.14;54.27;100670.50;5048359;28;20794;-77
2022/02/13 10:06:11;;;;;;;12.30;7.47;;;;;;;9.23;54.97;100669.09;5033333;28;20410;-77
2022/02/13 10:08:44;;;;;;;10.82;7.55;;;;;;;10.07;52.24;100657.09;5044863;28;20884;-77
2022/02/13 10:11:18;;;;;;;10.73;8.68;;;;;;;10.16;52.09;100656.53;5029982;28;20410;-77
2022/02/13 10:14:05;;;;;;;10.13;8.20;;;;;;;11.17;50.13;100657.72;5031821;28;20809;-77
2022/02/13 10:16:36;;;;;;;10.10;8.38;;;;;;;12.37;47.62;100648.00;5041239;28;20811;-77
2022/02/13 10:19:09;;;;;;;8.52;7.35;;;;;;;12.93;45.71;100641.31;5044136;28;20397;-77
2022/02/13 10:21:41;;;;;;;8.55;7.65;;;;;;;14.62;41.28;100640.41;5040879;28;20436;-78
2022/02/13 10:24:26;;;;;;;12.17;8.07;;;;;;;14.35;41.55;100639.78;5031970;28;20480;-77
2022/02/13 10:27:07;;;;;;;9.13;7.25;;;;;;;13.91;42.52;100645.47;5033630;28;20417;-78
2022/02/13 10:29:35;;;;;;;11.75;8.20;;;;;;;15.16;41.09;100631.84;5042382;28;20398;-78
2022/02/13 10:32:12;;;;;;;10.50;8.55;;;;;;;16.44;37.56;100624.88;5039936;28;20409;-77
2022/02/13 10:34:39;;;;;;;9.00;7.97;;;;;;;15.74;38.33;100619.59;5034906;28;20409;-78
2022/02/13 10:37:05;;;;;;;7.97;7.05;;;;;;;15.82;38.93;100621.78;5035660;28;20414;-78
2022/02/13 10:39:30;;;;;;;8.63;7.30;;;;;;;16.31;38.62;100622.75;5030634;28;20419;-77
2022/02/13 10:41:56;;;;;;;8.33;7.40;;;;;;;15.65;39.09;100621.22;5037688;28;21160;-78
2022/02/13 10:44:29;;;;;;;11.10;7.18;;;;;;;16.10;37.42;100623.91;5058048;28;20417;-78
2022/02/13 10:46:56;;;;;;;14.02;8.25;;;;;;;16.53;36.38;100625.94;5035699;28;20995;-78
2022/02/13 10:49:22;;;;;;;12.30;8.23;;;;;;;15.65;37.34;100623.97;5049693;28;20888;-78
2022/02/13 10:51:48;;;;;;;12.98;8.45;;;;;;;13.61;40.92;100615.28;5030628;28;20415;-78
2022/02/13 10:54:14;;;;;;;10.80;8.20;;;;;;;11.73;45.60;100613.38;5033638;28;20406;-77
2022/02/13 10:56:39;;;;;;;13.27;9.27;;;;;;;10.43;49.05;100607.25;5036633;28;20763;-77
2022/02/13 10:59:11;;;;;;;13.20;9.70;;;;;;;9.57;51.52;100600.72;5032700;28;20432;-77
2022/02/13 11:01:37;;;;;;;11.18;8.73;;;;;;;8.86;54.18;100603.50;5039620;28;20401;-77
2022/02/13 11:04:03;;;;;;;12.25;9.13;;;;;;;8.55;55.69;100598.34;5029661;28;20411;-77
2022/02/13 11:06:37;;;;;;;11.02;8.65;;;;;;;8.24;56.88;100583.97;5030326;28;20486;-77
2022/02/13 11:09:14;;;;;;;12.18;9.85;;;;;;;7.91;57.78;100583.50;5029124;28;20518;-77
2022/02/13 11:11:41;;;;;;;11.57;8.75;;;;;;;7.68;59.01;100578.78;5034128;28;20413;-77
2022/02/13 11:14:07;;;;;;;13.98;8.93;;;;;;;7.60;59.75;100562.91;5037361;28;20405;-77
2022/02/13 11:16:39;;;;;;;10.27;8.63;;;;;;;7.59;60.41;100561.25;5035089;28;20403;-77